sensor_id;sensor_type;location;lat;lon;timestamp;P1;durP1;ratioP1;P2;durP2;ratioP2
81648;SDS011;71057;51.436;6.768;2024-02-26T00:02:07;3.33;;;1.87;;
81648;SDS011;71057;51.436;6.768;2024-02-26T00:04:32;2.17;;;1.90;;
81648;SDS011;71057;51.436;6.768;2024-02-26T00:06:58;2.70;;;1.87;;
81648;SDS011;71057;51.436;6.768;2024-02-26T00:09:23;2.60;;;2.07;;
81648;SDS011;71057;51.436;6.768;2024-02-26T00:11:48;2.88;;;1.92;;
81648;SDS011;71057;51.436;6.768;2024-02-26T00:14:14;3.75;;;2.10;;
81648;SDS011;71057;51.436;6.768;2024-02-26T00:16:40;2.10;;;1.90;;
81648;SDS011;71057;51.436;6.768;2024-02-26T00:19:06;2.75;;;1.73;;
81648;SDS011;71057;51.436;6.768;2024-02-26T00:21:31;2.72;;;1.88;;
81648;SDS011;71057;51.436;6.768;2024-02-26T00:23:56;2.77;;;2.13;;
81648;SDS011;71057;51.436;6.768;2024-02-26T00:26:22;2.38;;;1.95;;
81648;SDS011;71057;51.436;6.768;2024-02-26T00:28:47;3.03;;;2.20;;
81648;SDS011;71057;51.436;6.768;2024-02-26T00:31:12;2.95;;;2.30;;
81648;SDS011;71057;51.436;6.768;2024-02-26T00:33:37;2.33;;;1.80;;
81648;SDS011;71057;51.436;6.768;2024-02-26T00:36:03;4.60;;;2.05;;
81648;SDS011;71057;51.436;6.768;2024-02-26T00:38:29;2.72;;;2.00;;
81648;SDS011;71057;51.436;6.768;2024-02-26T00:40:55;2.13;;;1.90;;
81648;SDS011;71057;51.436;6.768;2024-02-26T00:43:20;3.80;;;2.20;;
81648;SDS011;71057;51.436;6.768;2024-02-26T00:45:45;2.60;;;1.90;;
81648;SDS011;71057;51.436;6.768;2024-02-26T00:48:12;3.20;;;1.90;;
81648;SDS011;71057;51.436;6.768;2024-02-26T00:50:38;2.70;;;1.60;;
81648;SDS011;71057;51.436;6.768;2024-02-26T00:53:04;4.10;;;1.90;;
81648;SDS011;71057;51.436;6.768;2024-02-26T00:55:29;3.10;;;2.03;;
81648;SDS011;71057;51.436;6.768;2024-02-26T00:57:55;4.00;;;2.13;;
81648;SDS011;71057;51.436;6.768;2024-02-26T01:00:20;2.67;;;1.63;;
81648;SDS011;71057;51.436;6.768;2024-02-26T01:02:45;2.35;;;1.58;;
81648;SDS011;71057;51.436;6.768;2024-02-26T01:05:14;2.53;;;1.88;;
81648;SDS011;71057;51.436;6.768;2024-02-26T01:07:39;2.20;;;1.58;;
81648;SDS011;71057;51.436;6.768;2024-02-26T01:10:05;3.25;;;2.10;;
81648;SDS011;71057;51.436;6.768;2024-02-26T01:12:32;3.05;;;1.88;;
81648;SDS011;71057;51.436;6.768;2024-02-26T01:14:58;3.17;;;2.10;;
81648;SDS011;71057;51.436;6.768;2024-02-26T01:17:23;3.40;;;1.92;;
81648;SDS011;71057;51.436;6.768;2024-02-26T01:19:48;2.25;;;1.85;;
81648;SDS011;71057;51.436;6.768;2024-02-26T01:22:14;2.75;;;1.70;;
81648;SDS011;71057;51.436;6.768;2024-02-26T01:24:39;2.13;;;1.40;;
81648;SDS011;71057;51.436;6.768;2024-02-26T01:27:04;2.08;;;1.80;;
81648;SDS011;71057;51.436;6.768;2024-02-26T01:29:30;2.47;;;1.65;;
81648;SDS011;71057;51.436;6.768;2024-02-26T01:31:55;1.73;;;1.40;;
81648;SDS011;71057;51.436;6.768;2024-02-26T01:34:21;2.38;;;1.65;;
81648;SDS011;71057;51.436;6.768;2024-02-26T01:36:46;2.97;;;1.77;;
81648;SDS011;71057;51.436;6.768;2024-02-26T01:39:12;3.88;;;1.83;;
81648;SDS011;71057;51.436;6.768;2024-02-26T01:41:37;2.17;;;1.52;;
81648;SDS011;71057;51.436;6.768;2024-02-26T01:44:04;2.30;;;1.83;;
81648;SDS011;71057;51.436;6.768;2024-02-26T01:46:29;2.20;;;1.70;;
81648;SDS011;71057;51.436;6.768;2024-02-26T01:48:57;2.83;;;1.85;;
81648;SDS011;71057;51.436;6.768;2024-02-26T01:51:22;2.53;;;1.80;;
81648;SDS011;71057;51.436;6.768;2024-02-26T01:53:48;2.53;;;1.80;;
81648;SDS011;71057;51.436;6.768;2024-02-26T01:56:14;2.45;;;1.55;;
81648;SDS011;71057;51.436;6.768;2024-02-26T01:58:41;2.67;;;1.80;;
81648;SDS011;71057;51.436;6.768;2024-02-26T02:01:06;2.30;;;1.88;;
81648;SDS011;71057;51.436;6.768;2024-02-26T02:03:32;2.70;;;1.70;;
81648;SDS011;71057;51.436;6.768;2024-02-26T02:05:58;2.42;;;1.98;;
81648;SDS011;71057;51.436;6.768;2024-02-26T02:08:24;2.37;;;2.00;;
81648;SDS011;71057;51.436;6.768;2024-02-26T02:10:49;2.08;;;1.77;;
81648;SDS011;71057;51.436;6.768;2024-02-26T02:13:15;2.28;;;2.08;;
81648;SDS011;71057;51.436;6.768;2024-02-26T02:15:40;2.72;;;1.75;;
81648;SDS011;71057;51.436;6.768;2024-02-26T02:18:06;3.33;;;1.90;;
81648;SDS011;71057;51.436;6.768;2024-02-26T02:20:34;3.63;;;2.03;;
81648;SDS011;71057;51.436;6.768;2024-02-26T02:23:00;3.00;;;1.92;;
81648;SDS011;71057;51.436;6.768;2024-02-26T02:25:26;2.45;;;2.03;;
81648;SDS011;71057;51.436;6.768;2024-02-26T02:27:51;2.35;;;1.77;;
81648;SDS011;71057;51.436;6.768;2024-02-26T02:30:19;2.58;;;2.10;;
81648;SDS011;71057;51.436;6.768;2024-02-26T02:32:48;2.95;;;1.90;;
81648;SDS011;71057;51.436;6.768;2024-02-26T02:35:14;5.60;;;2.22;;
81648;SDS011;71057;51.436;6.768;2024-02-26T02:37:39;3.75;;;2.72;;
81648;SDS011;71057;51.436;6.768;2024-02-26T02:40:05;3.00;;;2.20;;
81648;SDS011;71057;51.436;6.768;2024-02-26T02:42:31;4.13;;;2.35;;
81648;SDS011;71057;51.436;6.768;2024-02-26T02:44:56;3.90;;;2.50;;
81648;SDS011;71057;51.436;6.768;2024-02-26T02:47:21;2.90;;;2.37;;
81648;SDS011;71057;51.436;6.768;2024-02-26T02:49:47;3.20;;;2.27;;
81648;SDS011;71057;51.436;6.768;2024-02-26T02:52:12;2.78;;;2.30;;
81648;SDS011;71057;51.436;6.768;2024-02-26T02:54:37;2.33;;;2.00;;
81648;SDS011;71057;51.436;6.768;2024-02-26T02:57:05;4.82;;;2.30;;
81648;SDS011;71057;51.436;6.768;2024-02-26T02:59:30;2.85;;;2.47;;
81648;SDS011;71057;51.436;6.768;2024-02-26T03:01:56;2.10;;;1.88;;
81648;SDS011;71057;51.436;6.768;2024-02-26T03:04:21;3.10;;;2.30;;
81648;SDS011;71057;51.436;6.768;2024-02-26T03:06:47;3.05;;;2.13;;
81648;SDS011;71057;51.436;6.768;2024-02-26T03:09:12;2.90;;;2.20;;
81648;SDS011;71057;51.436;6.768;2024-02-26T03:11:37;2.95;;;2.22;;
81648;SDS011;71057;51.436;6.768;2024-02-26T03:14:03;3.38;;;2.70;;
81648;SDS011;71057;51.436;6.768;2024-02-26T03:16:29;2.90;;;2.15;;
81648;SDS011;71057;51.436;6.768;2024-02-26T03:18:55;2.65;;;2.05;;
81648;SDS011;71057;51.436;6.768;2024-02-26T03:21:20;2.42;;;2.15;;
81648;SDS011;71057;51.436;6.768;2024-02-26T03:23:46;2.50;;;2.20;;
81648;SDS011;71057;51.436;6.768;2024-02-26T03:26:11;4.50;;;2.50;;
81648;SDS011;71057;51.436;6.768;2024-02-26T03:28:39;4.28;;;2.30;;
81648;SDS011;71057;51.436;6.768;2024-02-26T03:31:05;3.35;;;2.53;;
81648;SDS011;71057;51.436;6.768;2024-02-26T03:33:30;3.37;;;2.37;;
81648;SDS011;71057;51.436;6.768;2024-02-26T03:35:55;2.80;;;2.03;;
81648;SDS011;71057;51.436;6.768;2024-02-26T03:38:21;3.53;;;2.13;;
81648;SDS011;71057;51.436;6.768;2024-02-26T03:40:47;3.58;;;2.30;;
81648;SDS011;71057;51.436;6.768;2024-02-26T03:43:12;3.13;;;2.30;;
81648;SDS011;71057;51.436;6.768;2024-02-26T03:45:37;3.45;;;2.45;;
81648;SDS011;71057;51.436;6.768;2024-02-26T03:48:03;4.07;;;2.40;;
81648;SDS011;71057;51.436;6.768;2024-02-26T03:50:28;3.85;;;2.75;;
81648;SDS011;71057;51.436;6.768;2024-02-26T03:52:54;4.38;;;2.90;;
81648;SDS011;71057;51.436;6.768;2024-02-26T03:55:19;3.92;;;2.65;;
81648;SDS011;71057;51.436;6.768;2024-02-26T03:57:49;3.53;;;3.05;;
81648;SDS011;71057;51.436;6.768;2024-02-26T04:00:15;3.33;;;2.50;;
81648;SDS011;71057;51.436;6.768;2024-02-26T04:02:40;3.95;;;2.92;;
81648;SDS011;71057;51.436;6.768;2024-02-26T04:05:08;3.83;;;2.67;;
81648;SDS011;71057;51.436;6.768;2024-02-26T04:07:35;4.47;;;2.65;;
81648;SDS011;71057;51.436;6.768;2024-02-26T04:10:01;3.58;;;2.75;;
81648;SDS011;71057;51.436;6.768;2024-02-26T04:12:28;3.00;;;2.70;;
81648;SDS011;71057;51.436;6.768;2024-02-26T04:14:54;3.53;;;2.30;;
81648;SDS011;71057;51.436;6.768;2024-02-26T04:17:19;3.70;;;2.43;;
81648;SDS011;71057;51.436;6.768;2024-02-26T04:19:44;3.70;;;2.77;;
81648;SDS011;71057;51.436;6.768;2024-02-26T04:22:10;3.87;;;2.43;;
81648;SDS011;71057;51.436;6.768;2024-02-26T04:24:36;4.28;;;2.67;;
81648;SDS011;71057;51.436;6.768;2024-02-26T04:27:01;3.72;;;2.72;;
81648;SDS011;71057;51.436;6.768;2024-02-26T04:29:26;3.63;;;2.57;;
81648;SDS011;71057;51.436;6.768;2024-02-26T04:31:52;3.60;;;2.72;;
81648;SDS011;71057;51.436;6.768;2024-02-26T04:34:17;4.80;;;3.03;;
81648;SDS011;71057;51.436;6.768;2024-02-26T04:36:42;3.17;;;2.70;;
81648;SDS011;71057;51.436;6.768;2024-02-26T04:39:08;3.90;;;3.03;;
81648;SDS011;71057;51.436;6.768;2024-02-26T04:41:33;4.82;;;3.08;;
81648;SDS011;71057;51.436;6.768;2024-02-26T04:43:58;3.50;;;2.50;;
81648;SDS011;71057;51.436;6.768;2024-02-26T04:46:24;3.73;;;2.90;;
81648;SDS011;71057;51.436;6.768;2024-02-26T04:48:49;3.90;;;3.00;;
81648;SDS011;71057;51.436;6.768;2024-02-26T04:51:14;3.27;;;2.87;;
81648;SDS011;71057;51.436;6.768;2024-02-26T04:53:40;4.40;;;2.90;;
81648;SDS011;71057;51.436;6.768;2024-02-26T04:56:05;8.23;;;3.20;;
81648;SDS011;71057;51.436;6.768;2024-02-26T04:58:31;4.95;;;3.58;;
81648;SDS011;71057;51.436;6.768;2024-02-26T05:00:56;3.47;;;3.07;;
81648;SDS011;71057;51.436;6.768;2024-02-26T05:03:21;4.70;;;3.50;;
81648;SDS011;71057;51.436;6.768;2024-02-26T05:05:47;4.30;;;2.80;;
81648;SDS011;71057;51.436;6.768;2024-02-26T05:08:12;7.00;;;3.17;;
81648;SDS011;71057;51.436;6.768;2024-02-26T05:10:37;3.33;;;2.90;;
81648;SDS011;71057;51.436;6.768;2024-02-26T05:13:05;4.03;;;2.92;;
81648;SDS011;71057;51.436;6.768;2024-02-26T05:15:31;4.53;;;2.85;;
81648;SDS011;71057;51.436;6.768;2024-02-26T05:17:57;4.05;;;2.95;;
81648;SDS011;71057;51.436;6.768;2024-02-26T05:20:22;5.38;;;3.17;;
81648;SDS011;71057;51.436;6.768;2024-02-26T05:22:48;4.43;;;2.80;;
81648;SDS011;71057;51.436;6.768;2024-02-26T05:25:16;4.22;;;3.10;;
81648;SDS011;71057;51.436;6.768;2024-02-26T05:27:43;4.45;;;3.15;;
81648;SDS011;71057;51.436;6.768;2024-02-26T05:30:09;8.45;;;3.92;;
81648;SDS011;71057;51.436;6.768;2024-02-26T05:32:35;3.53;;;3.20;;
81648;SDS011;71057;51.436;6.768;2024-02-26T05:35:00;4.27;;;3.20;;
81648;SDS011;71057;51.436;6.768;2024-02-26T05:37:28;4.60;;;3.10;;
81648;SDS011;71057;51.436;6.768;2024-02-26T05:39:53;3.60;;;3.10;;
81648;SDS011;71057;51.436;6.768;2024-02-26T05:42:18;4.25;;;3.25;;
81648;SDS011;71057;51.436;6.768;2024-02-26T05:44:43;3.73;;;3.03;;
81648;SDS011;71057;51.436;6.768;2024-02-26T05:47:09;3.40;;;2.90;;
81648;SDS011;71057;51.436;6.768;2024-02-26T05:49:34;5.65;;;3.28;;
81648;SDS011;71057;51.436;6.768;2024-02-26T05:51:59;3.60;;;3.07;;
81648;SDS011;71057;51.436;6.768;2024-02-26T05:54:25;5.13;;;3.40;;
81648;SDS011;71057;51.436;6.768;2024-02-26T05:56:50;4.23;;;3.83;;
81648;SDS011;71057;51.436;6.768;2024-02-26T05:59:15;4.97;;;3.65;;
81648;SDS011;71057;51.436;6.768;2024-02-26T06:01:41;4.20;;;3.03;;
81648;SDS011;71057;51.436;6.768;2024-02-26T06:04:06;4.18;;;3.47;;
81648;SDS011;71057;51.436;6.768;2024-02-26T06:06:32;5.53;;;3.72;;
81648;SDS011;71057;51.436;6.768;2024-02-26T06:08:57;4.57;;;3.03;;
81648;SDS011;71057;51.436;6.768;2024-02-26T06:11:23;3.83;;;3.13;;
81648;SDS011;71057;51.436;6.768;2024-02-26T06:13:48;4.20;;;3.20;;
81648;SDS011;71057;51.436;6.768;2024-02-26T06:16:13;4.50;;;3.70;;
81648;SDS011;71057;51.436;6.768;2024-02-26T06:18:39;5.67;;;3.47;;
81648;SDS011;71057;51.436;6.768;2024-02-26T06:21:04;4.78;;;3.67;;
81648;SDS011;71057;51.436;6.768;2024-02-26T06:23:29;4.30;;;3.22;;
81648;SDS011;71057;51.436;6.768;2024-02-26T06:25:55;5.28;;;3.40;;
81648;SDS011;71057;51.436;6.768;2024-02-26T06:28:20;4.20;;;3.60;;
81648;SDS011;71057;51.436;6.768;2024-02-26T06:30:45;6.27;;;3.57;;
81648;SDS011;71057;51.436;6.768;2024-02-26T06:33:11;4.13;;;3.03;;
81648;SDS011;71057;51.436;6.768;2024-02-26T06:35:36;3.97;;;3.38;;
81648;SDS011;71057;51.436;6.768;2024-02-26T06:38:02;6.30;;;3.72;;
81648;SDS011;71057;51.436;6.768;2024-02-26T06:40:28;4.93;;;3.08;;
81648;SDS011;71057;51.436;6.768;2024-02-26T06:42:53;5.00;;;3.30;;
81648;SDS011;71057;51.436;6.768;2024-02-26T06:45:18;4.53;;;3.22;;
81648;SDS011;71057;51.436;6.768;2024-02-26T06:47:44;4.63;;;3.53;;
81648;SDS011;71057;51.436;6.768;2024-02-26T06:50:11;4.40;;;3.50;;
81648;SDS011;71057;51.436;6.768;2024-02-26T06:52:37;4.68;;;3.42;;
81648;SDS011;71057;51.436;6.768;2024-02-26T06:55:03;5.70;;;4.03;;
81648;SDS011;71057;51.436;6.768;2024-02-26T06:57:30;5.75;;;3.20;;
81648;SDS011;71057;51.436;6.768;2024-02-26T06:59:55;6.13;;;4.40;;
81648;SDS011;71057;51.436;6.768;2024-02-26T07:02:20;5.38;;;4.35;;
81648;SDS011;71057;51.436;6.768;2024-02-26T07:04:45;5.93;;;3.40;;
81648;SDS011;71057;51.436;6.768;2024-02-26T07:12:11;7.38;;;3.47;;
81648;SDS011;71057;51.436;6.768;2024-02-26T07:14:37;4.28;;;3.47;;
81648;SDS011;71057;51.436;6.768;2024-02-26T07:17:02;4.88;;;3.40;;
81648;SDS011;71057;51.436;6.768;2024-02-26T07:19:28;5.63;;;3.38;;
81648;SDS011;71057;51.436;6.768;2024-02-26T07:21:53;4.65;;;3.38;;
81648;SDS011;71057;51.436;6.768;2024-02-26T07:24:19;4.03;;;3.00;;
81648;SDS011;71057;51.436;6.768;2024-02-26T07:26:44;3.90;;;2.97;;
81648;SDS011;71057;51.436;6.768;2024-02-26T07:29:09;3.73;;;2.70;;
81648;SDS011;71057;51.436;6.768;2024-02-26T07:31:34;4.73;;;3.57;;
81648;SDS011;71057;51.436;6.768;2024-02-26T07:34:00;5.40;;;3.70;;
81648;SDS011;71057;51.436;6.768;2024-02-26T07:36:25;3.65;;;2.90;;
81648;SDS011;71057;51.436;6.768;2024-02-26T07:38:51;4.53;;;2.88;;
81648;SDS011;71057;51.436;6.768;2024-02-26T07:41:19;4.25;;;3.28;;
81648;SDS011;71057;51.436;6.768;2024-02-26T07:43:44;4.03;;;3.10;;
81648;SDS011;71057;51.436;6.768;2024-02-26T07:46:13;5.00;;;3.63;;
81648;SDS011;71057;51.436;6.768;2024-02-26T07:48:38;3.95;;;3.30;;
81648;SDS011;71057;51.436;6.768;2024-02-26T07:51:04;4.20;;;3.47;;
81648;SDS011;71057;51.436;6.768;2024-02-26T07:53:29;4.57;;;3.30;;
81648;SDS011;71057;51.436;6.768;2024-02-26T07:55:55;4.70;;;3.20;;
81648;SDS011;71057;51.436;6.768;2024-02-26T07:58:21;5.15;;;3.25;;
81648;SDS011;71057;51.436;6.768;2024-02-26T08:00:48;5.18;;;3.28;;
81648;SDS011;71057;51.436;6.768;2024-02-26T08:03:14;4.75;;;3.85;;
81648;SDS011;71057;51.436;6.768;2024-02-26T08:05:40;5.20;;;3.40;;
81648;SDS011;71057;51.436;6.768;2024-02-26T08:08:07;4.47;;;3.33;;
81648;SDS011;71057;51.436;6.768;2024-02-26T08:10:33;5.28;;;3.53;;
81648;SDS011;71057;51.436;6.768;2024-02-26T08:12:58;5.78;;;3.65;;
81648;SDS011;71057;51.436;6.768;2024-02-26T08:15:30;11.90;;;7.28;;
81648;SDS011;71057;51.436;6.768;2024-02-26T08:18:02;5.30;;;4.07;;
81648;SDS011;71057;51.436;6.768;2024-02-26T08:20:28;5.07;;;3.58;;
81648;SDS011;71057;51.436;6.768;2024-02-26T08:22:57;4.97;;;3.70;;
81648;SDS011;71057;51.436;6.768;2024-02-26T08:25:22;5.95;;;3.75;;
81648;SDS011;71057;51.436;6.768;2024-02-26T08:27:48;4.78;;;3.72;;
81648;SDS011;71057;51.436;6.768;2024-02-26T08:30:14;5.20;;;3.83;;
81648;SDS011;71057;51.436;6.768;2024-02-26T08:32:42;4.80;;;3.50;;
81648;SDS011;71057;51.436;6.768;2024-02-26T08:35:08;6.70;;;4.70;;
81648;SDS011;71057;51.436;6.768;2024-02-26T08:37:33;4.97;;;3.50;;
81648;SDS011;71057;51.436;6.768;2024-02-26T08:39:58;5.18;;;3.90;;
81648;SDS011;71057;51.436;6.768;2024-02-26T08:42:24;5.97;;;3.73;;
81648;SDS011;71057;51.436;6.768;2024-02-26T08:44:49;5.07;;;3.90;;
81648;SDS011;71057;51.436;6.768;2024-02-26T08:47:14;5.60;;;3.50;;
81648;SDS011;71057;51.436;6.768;2024-02-26T08:49:44;5.45;;;3.35;;
81648;SDS011;71057;51.436;6.768;2024-02-26T08:52:10;5.45;;;3.42;;
81648;SDS011;71057;51.436;6.768;2024-02-26T08:54:35;4.63;;;3.53;;
81648;SDS011;71057;51.436;6.768;2024-02-26T08:57:00;4.67;;;3.37;;
81648;SDS011;71057;51.436;6.768;2024-02-26T08:59:25;5.43;;;4.43;;
81648;SDS011;71057;51.436;6.768;2024-02-26T09:01:51;5.10;;;3.27;;
81648;SDS011;71057;51.436;6.768;2024-02-26T09:04:16;3.80;;;3.38;;
81648;SDS011;71057;51.436;6.768;2024-02-26T09:06:42;4.53;;;2.93;;
81648;SDS011;71057;51.436;6.768;2024-02-26T09:09:07;4.83;;;3.70;;
81648;SDS011;71057;51.436;6.768;2024-02-26T09:11:32;5.55;;;3.53;;
81648;SDS011;71057;51.436;6.768;2024-02-26T09:13:58;5.93;;;3.92;;
81648;SDS011;71057;51.436;6.768;2024-02-26T09:16:23;5.95;;;3.78;;
81648;SDS011;71057;51.436;6.768;2024-02-26T09:18:48;5.43;;;3.97;;
81648;SDS011;71057;51.436;6.768;2024-02-26T09:21:13;5.60;;;4.22;;
81648;SDS011;71057;51.436;6.768;2024-02-26T09:23:39;5.97;;;4.53;;
81648;SDS011;71057;51.436;6.768;2024-02-26T09:26:07;6.37;;;3.40;;
81648;SDS011;71057;51.436;6.768;2024-02-26T09:31:02;8.02;;;5.00;;
81648;SDS011;71057;51.436;6.768;2024-02-26T09:33:29;5.38;;;3.45;;
81648;SDS011;71057;51.436;6.768;2024-02-26T09:35:54;4.72;;;3.33;;
81648;SDS011;71057;51.436;6.768;2024-02-26T09:38:19;4.90;;;3.50;;
81648;SDS011;71057;51.436;6.768;2024-02-26T09:40:44;3.43;;;3.10;;
81648;SDS011;71057;51.436;6.768;2024-02-26T09:43:10;4.70;;;3.50;;
81648;SDS011;71057;51.436;6.768;2024-02-26T09:45:40;4.15;;;3.65;;
81648;SDS011;71057;51.436;6.768;2024-02-26T09:48:06;4.95;;;4.13;;
81648;SDS011;71057;51.436;6.768;2024-02-26T09:50:35;32.47;;;6.68;;
81648;SDS011;71057;51.436;6.768;2024-02-26T09:53:01;5.82;;;4.45;;
81648;SDS011;71057;51.436;6.768;2024-02-26T09:55:27;5.05;;;3.58;;
81648;SDS011;71057;51.436;6.768;2024-02-26T09:57:53;5.45;;;4.00;;
81648;SDS011;71057;51.436;6.768;2024-02-26T10:00:21;4.28;;;3.25;;
81648;SDS011;71057;51.436;6.768;2024-02-26T10:02:47;4.93;;;3.90;;
81648;SDS011;71057;51.436;6.768;2024-02-26T10:05:14;5.18;;;3.58;;
81648;SDS011;71057;51.436;6.768;2024-02-26T10:07:42;4.97;;;3.97;;
81648;SDS011;71057;51.436;6.768;2024-02-26T10:10:08;4.78;;;4.22;;
81648;SDS011;71057;51.436;6.768;2024-02-26T10:12:34;4.72;;;3.92;;
81648;SDS011;71057;51.436;6.768;2024-02-26T10:14:59;5.50;;;3.97;;
81648;SDS011;71057;51.436;6.768;2024-02-26T10:17:26;7.38;;;4.10;;
81648;SDS011;71057;51.436;6.768;2024-02-26T10:19:51;4.50;;;3.78;;
81648;SDS011;71057;51.436;6.768;2024-02-26T10:22:20;5.80;;;4.57;;
81648;SDS011;71057;51.436;6.768;2024-02-26T10:24:47;7.50;;;4.95;;
81648;SDS011;71057;51.436;6.768;2024-02-26T10:27:12;5.87;;;4.30;;
81648;SDS011;71057;51.436;6.768;2024-02-26T10:29:37;4.63;;;3.73;;
81648;SDS011;71057;51.436;6.768;2024-02-26T10:32:03;5.00;;;3.40;;
81648;SDS011;71057;51.436;6.768;2024-02-26T10:34:29;6.05;;;3.50;;
81648;SDS011;71057;51.436;6.768;2024-02-26T10:36:54;4.70;;;3.90;;
81648;SDS011;71057;51.436;6.768;2024-02-26T10:39:19;5.80;;;3.70;;
81648;SDS011;71057;51.436;6.768;2024-02-26T10:41:45;4.50;;;3.40;;
81648;SDS011;71057;51.436;6.768;2024-02-26T10:44:11;4.10;;;3.20;;
81648;SDS011;71057;51.436;6.768;2024-02-26T10:46:37;5.25;;;3.38;;
81648;SDS011;71057;51.436;6.768;2024-02-26T10:49:12;5.00;;;3.60;;
81648;SDS011;71057;51.436;6.768;2024-02-26T10:51:39;7.28;;;5.07;;
81648;SDS011;71057;51.436;6.768;2024-02-26T10:54:07;5.85;;;4.40;;
81648;SDS011;71057;51.436;6.768;2024-02-26T10:56:34;5.50;;;3.85;;
81648;SDS011;71057;51.436;6.768;2024-02-26T10:59:02;8.40;;;4.32;;
81648;SDS011;71057;51.436;6.768;2024-02-26T11:01:29;4.22;;;3.17;;
81648;SDS011;71057;51.436;6.768;2024-02-26T11:03:56;5.97;;;3.90;;
81648;SDS011;71057;51.436;6.768;2024-02-26T11:06:22;6.15;;;4.03;;
81648;SDS011;71057;51.436;6.768;2024-02-26T11:08:48;5.63;;;3.90;;
81648;SDS011;71057;51.436;6.768;2024-02-26T11:11:15;6.38;;;4.40;;
81648;SDS011;71057;51.436;6.768;2024-02-26T11:13:46;4.18;;;3.40;;
81648;SDS011;71057;51.436;6.768;2024-02-26T11:16:19;5.43;;;3.40;;
81648;SDS011;71057;51.436;6.768;2024-02-26T11:18:46;6.65;;;4.20;;
81648;SDS011;71057;51.436;6.768;2024-02-26T11:21:15;5.13;;;4.00;;
81648;SDS011;71057;51.436;6.768;2024-02-26T11:23:47;5.47;;;4.00;;
81648;SDS011;71057;51.436;6.768;2024-02-26T11:26:13;6.25;;;4.35;;
81648;SDS011;71057;51.436;6.768;2024-02-26T11:28:41;7.70;;;6.10;;
81648;SDS011;71057;51.436;6.768;2024-02-26T11:31:07;5.90;;;5.30;;
81648;SDS011;71057;51.436;6.768;2024-02-26T11:33:33;5.68;;;4.35;;
81648;SDS011;71057;51.436;6.768;2024-02-26T11:36:01;5.93;;;4.00;;
81648;SDS011;71057;51.436;6.768;2024-02-26T11:38:27;5.43;;;4.35;;
81648;SDS011;71057;51.436;6.768;2024-02-26T11:40:53;4.55;;;4.05;;
81648;SDS011;71057;51.436;6.768;2024-02-26T11:43:23;6.78;;;4.15;;
81648;SDS011;71057;51.436;6.768;2024-02-26T11:46:24;6.13;;;3.80;;
81648;SDS011;71057;51.436;6.768;2024-02-26T11:48:50;5.97;;;3.85;;
81648;SDS011;71057;51.436;6.768;2024-02-26T11:51:15;5.87;;;4.03;;
81648;SDS011;71057;51.436;6.768;2024-02-26T11:53:46;10.40;;;4.77;;
81648;SDS011;71057;51.436;6.768;2024-02-26T11:59:09;7.00;;;3.83;;
81648;SDS011;71057;51.436;6.768;2024-02-26T12:01:35;6.60;;;4.18;;
81648;SDS011;71057;51.436;6.768;2024-02-26T12:04:02;5.90;;;3.78;;
81648;SDS011;71057;51.436;6.768;2024-02-26T12:06:29;5.43;;;3.72;;
81648;SDS011;71057;51.436;6.768;2024-02-26T12:08:55;5.05;;;3.40;;
81648;SDS011;71057;51.436;6.768;2024-02-26T12:11:21;5.05;;;3.42;;
81648;SDS011;71057;51.436;6.768;2024-02-26T12:13:47;6.60;;;4.15;;
81648;SDS011;71057;51.436;6.768;2024-02-26T12:16:21;6.40;;;4.10;;
81648;SDS011;71057;51.436;6.768;2024-02-26T12:19:00;7.43;;;4.47;;
81648;SDS011;71057;51.436;6.768;2024-02-26T12:21:26;6.38;;;3.90;;
81648;SDS011;71057;51.436;6.768;2024-02-26T12:23:52;6.15;;;3.97;;
81648;SDS011;71057;51.436;6.768;2024-02-26T12:26:18;6.63;;;4.93;;
81648;SDS011;71057;51.436;6.768;2024-02-26T12:28:46;6.63;;;4.55;;
81648;SDS011;71057;51.436;6.768;2024-02-26T12:31:12;8.05;;;4.85;;
81648;SDS011;71057;51.436;6.768;2024-02-26T12:33:37;8.00;;;4.47;;
81648;SDS011;71057;51.436;6.768;2024-02-26T12:36:03;7.78;;;4.65;;
81648;SDS011;71057;51.436;6.768;2024-02-26T12:38:29;6.03;;;4.93;;
81648;SDS011;71057;51.436;6.768;2024-02-26T12:40:55;8.55;;;5.95;;
81648;SDS011;71057;51.436;6.768;2024-02-26T12:43:20;6.35;;;4.80;;
81648;SDS011;71057;51.436;6.768;2024-02-26T12:45:46;6.72;;;5.03;;
81648;SDS011;71057;51.436;6.768;2024-02-26T12:48:12;7.20;;;4.85;;
81648;SDS011;71057;51.436;6.768;2024-02-26T12:50:38;6.00;;;4.60;;
81648;SDS011;71057;51.436;6.768;2024-02-26T12:53:03;6.77;;;4.70;;
81648;SDS011;71057;51.436;6.768;2024-02-26T12:55:30;5.82;;;4.53;;
81648;SDS011;71057;51.436;6.768;2024-02-26T12:57:59;6.28;;;4.35;;
81648;SDS011;71057;51.436;6.768;2024-02-26T13:00:25;5.97;;;4.53;;
81648;SDS011;71057;51.436;6.768;2024-02-26T13:02:51;5.95;;;4.47;;
81648;SDS011;71057;51.436;6.768;2024-02-26T13:05:20;6.28;;;4.55;;
81648;SDS011;71057;51.436;6.768;2024-02-26T13:07:46;8.10;;;5.10;;
81648;SDS011;71057;51.436;6.768;2024-02-26T13:10:12;7.10;;;4.88;;
81648;SDS011;71057;51.436;6.768;2024-02-26T13:12:44;6.30;;;4.63;;
81648;SDS011;71057;51.436;6.768;2024-02-26T13:15:14;6.05;;;4.53;;
81648;SDS011;71057;51.436;6.768;2024-02-26T13:17:44;7.22;;;4.93;;
81648;SDS011;71057;51.436;6.768;2024-02-26T13:20:10;6.00;;;4.07;;
81648;SDS011;71057;51.436;6.768;2024-02-26T13:22:37;6.20;;;4.72;;
81648;SDS011;71057;51.436;6.768;2024-02-26T13:25:03;6.82;;;4.55;;
81648;SDS011;71057;51.436;6.768;2024-02-26T13:27:29;6.10;;;4.40;;
81648;SDS011;71057;51.436;6.768;2024-02-26T13:30:10;6.13;;;4.40;;
81648;SDS011;71057;51.436;6.768;2024-02-26T13:32:38;6.53;;;4.05;;
81648;SDS011;71057;51.436;6.768;2024-02-26T13:35:13;5.40;;;4.03;;
81648;SDS011;71057;51.436;6.768;2024-02-26T13:37:39;6.18;;;3.97;;
81648;SDS011;71057;51.436;6.768;2024-02-26T13:42:31;5.45;;;3.58;;
81648;SDS011;71057;51.436;6.768;2024-02-26T13:44:57;4.90;;;3.45;;
81648;SDS011;71057;51.436;6.768;2024-02-26T13:47:22;4.77;;;3.80;;
81648;SDS011;71057;51.436;6.768;2024-02-26T13:49:48;4.40;;;3.60;;
81648;SDS011;71057;51.436;6.768;2024-02-26T13:52:13;5.97;;;3.97;;
81648;SDS011;71057;51.436;6.768;2024-02-26T13:54:39;5.45;;;3.65;;
81648;SDS011;71057;51.436;6.768;2024-02-26T13:57:05;5.80;;;3.95;;
81648;SDS011;71057;51.436;6.768;2024-02-26T13:59:31;4.22;;;3.50;;
81648;SDS011;71057;51.436;6.768;2024-02-26T14:01:56;4.65;;;3.22;;
81648;SDS011;71057;51.436;6.768;2024-02-26T14:04:21;4.05;;;3.50;;
81648;SDS011;71057;51.436;6.768;2024-02-26T14:06:47;4.67;;;3.27;;
81648;SDS011;71057;51.436;6.768;2024-02-26T14:09:12;4.65;;;3.50;;
81648;SDS011;71057;51.436;6.768;2024-02-26T14:11:43;5.95;;;3.97;;
81648;SDS011;71057;51.436;6.768;2024-02-26T14:14:09;5.30;;;3.47;;
81648;SDS011;71057;51.436;6.768;2024-02-26T14:16:34;4.43;;;3.17;;
81648;SDS011;71057;51.436;6.768;2024-02-26T14:19:00;4.60;;;3.20;;
81648;SDS011;71057;51.436;6.768;2024-02-26T14:21:27;5.10;;;3.42;;
81648;SDS011;71057;51.436;6.768;2024-02-26T14:23:52;5.20;;;3.50;;
81648;SDS011;71057;51.436;6.768;2024-02-26T14:26:17;4.73;;;3.90;;
81648;SDS011;71057;51.436;6.768;2024-02-26T14:28:43;5.63;;;3.77;;
81648;SDS011;71057;51.436;6.768;2024-02-26T14:31:08;3.63;;;3.30;;
81648;SDS011;71057;51.436;6.768;2024-02-26T14:33:37;6.50;;;3.70;;
81648;SDS011;71057;51.436;6.768;2024-02-26T14:36:04;3.83;;;3.20;;
81648;SDS011;71057;51.436;6.768;2024-02-26T14:38:29;5.63;;;4.25;;
81648;SDS011;71057;51.436;6.768;2024-02-26T14:40:55;4.90;;;3.90;;
81648;SDS011;71057;51.436;6.768;2024-02-26T14:43:21;5.93;;;4.13;;
81648;SDS011;71057;51.436;6.768;2024-02-26T14:45:46;6.00;;;4.07;;
81648;SDS011;71057;51.436;6.768;2024-02-26T14:48:11;5.18;;;3.22;;
81648;SDS011;71057;51.436;6.768;2024-02-26T14:50:37;4.82;;;3.30;;
81648;SDS011;71057;51.436;6.768;2024-02-26T14:53:02;4.70;;;3.73;;
81648;SDS011;71057;51.436;6.768;2024-02-26T14:55:27;4.93;;;3.65;;